Time;durP1;ratioP1;P1;durP2;ratioP2;P2;SDS_P1;SDS_P2;PMS_P1;PMS_P2;Temp;Humidity;BMP_temperature;BMP_pressure;BME280_temperature;BME280_humidity;BME280_pressure;Samples;Min_cycle;Max_cycle;Signal;HPM_P1;HPM_P2
2022/09/19 00:00:32;;;;;;;1.90;0.50;;;;;;;8.05;93.23;99406.52;105672;1273;24737;-67
2022/09/19 00:03:23;;;;;;;4.50;0.70;;;;;;;8.07;93.33;99407.52;105637;1271;23457;-67
2022/09/19 00:05:54;;;;;;;1.90;0.60;;;;;;;8.08;93.30;99405.81;105583;1273;22539;-68
2022/09/19 00:08:26;;;;;;;3.00;0.60;;;;;;;8.07;93.15;99411.52;105585;1271;22544;-67
2022/09/19 00:11:01;;;;;;;3.10;0.50;;;;;;;8.05;93.18;99411.44;105645;1271;24602;-67
2022/09/19 00:13:34;;;;;;;6.60;0.70;;;;;;;8.06;93.20;99407.60;105615;1271;22556;-67
2022/09/19 00:16:06;;;;;;;2.50;0.60;;;;;;;8.03;93.22;99404.18;105568;1271;22535;-67
2022/09/19 00:18:36;;;;;;;3.60;0.80;;;;;;;8.00;93.08;99408.77;105698;1271;24357;-67
2022/09/19 00:21:08;;;;;;;4.10;0.80;;;;;;;7.98;92.96;99410.11;105576;1271;22564;-67
2022/09/19 00:26:27;;;;;;;3.80;0.70;;;;;;;7.92;92.98;99404.73;105674;1272;22651;-67
2022/09/19 00:28:58;;;;;;;8.40;0.90;;;;;;;7.90;92.97;99399.91;105628;1271;22528;-67
2022/09/19 00:31:29;;;;;;;5.30;0.70;;;;;;;7.88;92.99;99397.91;105619;1271;22567;-67
2022/09/19 00:34:03;;;;;;;1.70;0.40;;;;;;;7.84;92.88;99401.55;105587;1272;23110;-67
2022/09/19 00:36:34;;;;;;;2.90;0.50;;;;;;;7.82;92.82;99400.45;105819;1273;23071;-68
2022/09/19 00:39:07;;;;;;;6.00;0.70;;;;;;;7.79;92.86;99399.71;105719;1271;22547;-70
2022/09/19 00:41:38;;;;;;;4.40;0.40;;;;;;;7.77;92.83;99394.52;105746;1273;22560;-71
2022/09/19 00:44:46;;;;;;;5.10;0.50;;;;;;;7.76;93.05;99395.96;105755;1271;22529;-67
2022/09/19 00:47:24;;;;;;;5.60;0.60;;;;;;;7.73;92.94;99392.98;105615;1271;22518;-68
2022/09/19 00:50:00;;;;;;;6.30;0.50;;;;;;;7.72;92.94;99393.11;105592;1272;22705;-69
2022/09/19 00:52:40;;;;;;;4.10;0.60;;;;;;;7.71;92.82;99387.85;105653;1271;24621;-68
2022/09/19 00:55:12;;;;;;;4.90;0.60;;;;;;;7.70;92.76;99388.88;105634;1271;24334;-69
2022/09/19 00:58:02;;;;;;;3.60;0.70;;;;;;;7.68;92.60;99384.45;105627;1271;25496;-69
2022/09/19 01:00:32;;;;;;;;;;;;;;;7.65;92.49;99382.48;105619;1271;22512;-65
2022/09/19 01:03:04;;;;;;;3.00;0.50;;;;;;;7.61;92.38;99388.19;105661;1271;24231;-68
2022/09/19 01:05:46;;;;;;;2.70;0.50;;;;;;;7.58;92.37;99390.75;105614;1271;25414;-68
2022/09/19 01:08:45;;;;;;;1.80;0.50;;;;;;;7.55;92.12;99390.90;105644;1271;24263;-69
2022/09/19 01:11:39;;;;;;;3.60;0.50;;;;;;;7.51;92.08;99392.78;101711;1271;5432026;-70
2022/09/19 01:14:26;;;;;;;6.70;0.60;;;;;;;7.49;92.33;99393.98;105661;1273;22569;-69
2022/09/19 01:17:06;;;;;;;2.20;0.50;;;;;;;7.49;92.57;99397.41;105677;1271;24609;-69
2022/09/19 01:20:10;;;;;;;2.00;0.40;;;;;;;7.50;92.83;99396.81;105649;1271;22546;-68
2022/09/19 01:22:56;;;;;;;2.50;0.50;;;;;;;7.51;92.94;99393.75;105640;1273;22528;-68
2022/09/19 01:25:34;;;;;;;3.40;0.70;;;;;;;7.52;93.19;99392.26;105736;1271;22577;-68
2022/09/19 01:28:17;;;;;;;2.20;0.50;;;;;;;7.54;93.27;99393.73;105684;1272;25505;-68
2022/09/19 01:31:16;;;;;;;2.00;0.50;;;;;;;7.56;93.44;99391.23;105683;1271;22780;-70
2022/09/19 01:33:57;;;;;;;2.70;0.60;;;;;;;7.57;93.50;99393.31;105544;1271;24350;-67
2022/09/19 01:36:34;;;;;;;2.50;0.70;;;;;;;7.58;93.58;99393.53;105666;1271;25652;-67
2022/09/19 01:39:09;;;;;;;3.50;0.60;;;;;;;7.57;93.51;99394.46;105676;1271;22582;-71
2022/09/19 01:41:47;;;;;;;3.40;0.60;;;;;;;7.56;93.47;99391.77;105947;1271;24231;-68
2022/09/19 01:44:21;;;;;;;2.70;0.50;;;;;;;7.56;93.32;99389.66;105840;1273;24901;-69
2022/09/19 01:47:00;;;;;;;3.60;0.50;;;;;;;7.55;93.38;99395.81;105870;1271;22771;-68
2022/09/19 01:49:43;;;;;;;3.40;0.60;;;;;;;7.54;93.35;99394.98;105637;1271;24232;-68
2022/09/19 01:52:24;;;;;;;4.90;0.70;;;;;;;7.53;93.28;99392.59;105752;1271;22554;-67
2022/09/19 01:55:06;;;;;;;3.90;0.80;;;;;;;7.52;93.22;99392.62;105625;1273;22604;-73
2022/09/19 01:57:47;;;;;;;2.80;0.50;;;;;;;7.51;93.31;99393.71;105800;1273;22533;-68
2022/09/19 02:00:22;;;;;;;2.20;0.50;;;;;;;7.50;93.23;99392.59;105631;1271;23094;-67
2022/09/19 02:03:07;;;;;;;4.20;0.70;;;;;;;7.50;93.19;99397.22;105676;1271;25322;-70
2022/09/19 02:05:50;;;;;;;3.90;0.60;;;;;;;7.49;93.23;99394.48;105635;1271;25252;-68
2022/09/19 02:08:29;;;;;;;2.30;0.50;;;;;;;7.48;93.25;99393.71;105582;1271;24265;-67
2022/09/19 02:11:05;;;;;;;3.50;0.90;;;;;;;7.48;93.35;99394.77;105735;1271;25304;-68
2022/09/19 02:13:40;;;;;;;4.30;0.60;;;;;;;7.48;93.37;99393.81;105684;1271;22538;-68
2022/09/19 02:16:17;;;;;;;3.60;0.80;;;;;;;7.47;93.47;99393.40;105772;1271;22803;-68
2022/09/19 02:18:54;;;;;;;5.80;0.60;;;;;;;7.47;93.60;99395.51;105738;1273;22494;-68
2022/09/19 02:21:31;;;;;;;4.70;1.00;;;;;;;7.47;93.62;99390.92;105560;1271;22573;-68
2022/09/19 02:24:06;;;;;;;3.80;0.90;;;;;;;7.48;93.62;99393.90;105679;1271;22534;-67
2022/09/19 02:26:40;;;;;;;5.80;0.80;;;;;;;7.48;93.54;99390.94;105664;1272;22562;-70
2022/09/19 02:29:19;;;;;;;1.60;0.50;;;;;;;7.49;93.53;99394.68;105660;1273;24282;-70
2022/09/19 02:31:51;;;;;;;7.10;0.80;;;;;;;7.47;93.34;99398.16;105586;1271;24238;-67
2022/09/19 02:34:22;;;;;;;5.40;1.20;;;;;;;7.45;93.16;99400.41;105555;1271;22518;-69
2022/09/19 02:37:00;;;;;;;3.80;1.00;;;;;;;7.44;93.24;99399.29;105593;1271;22550;-67
2022/09/19 02:39:39;;;;;;;4.20;0.80;;;;;;;7.42;93.21;99401.22;105651;1271;22729;-68
2022/09/19 02:42:17;;;;;;;4.00;1.10;;;;;;;7.41;93.23;99400.55;105591;1271;22529;-69
2022/09/19 02:45:06;;;;;;;4.50;0.90;;;;;;;7.40;93.36;99398.37;105594;1271;22541;-68
2022/09/19 02:47:45;;;;;;;4.10;0.70;;;;;;;7.40;93.34;99396.80;105674;1273;24298;-68
2022/09/19 02:50:19;;;;;;;3.20;0.90;;;;;;;7.37;93.25;99396.14;105654;1273;22722;-71
2022/09/19 02:52:54;;;;;;;3.10;0.80;;;;;;;7.35;93.17;99400.93;105706;1271;24231;-68
2022/09/19 02:55:29;;;;;;;4.10;0.80;;;;;;;7.33;93.36;99407.27;105736;1271;22731;-71
2022/09/19 02:58:03;;;;;;;4.40;0.80;;;;;;;7.32;93.44;99411.90;105582;1274;24388;-68
2022/09/19 03:00:38;;;;;;;2.60;0.70;;;;;;;7.32;93.47;99414.57;105677;1271;23057;-68
2022/09/19 03:05:59;;;;;;;3.20;0.80;;;;;;;7.34;93.85;99409.20;105782;1271;25354;-69
2022/09/19 03:08:35;;;;;;;6.30;0.90;;;;;;;7.36;94.06;99408.49;105712;1271;22556;-69
2022/09/19 03:11:14;;;;;;;4.70;0.80;;;;;;;7.38;94.13;99416.60;105733;1273;22554;-69
2022/09/19 03:13:46;;;;;;;5.90;1.00;;;;;;;7.38;94.23;99416.41;105748;1271;25426;-69
2022/09/19 03:16:20;;;;;;;2.30;0.80;;;;;;;7.40;94.49;99422.75;105788;1271;22532;-70
2022/09/19 03:18:54;;;;;;;5.90;1.00;;;;;;;7.43;94.39;99422.45;105631;1274;22533;-68
2022/09/19 03:21:26;;;;;;;5.20;1.20;;;;;;;7.44;94.56;99423.08;105593;1271;25255;-68
2022/09/19 03:23:59;;;;;;;4.90;1.40;;;;;;;7.48;94.69;99427.88;105795;1274;26648;-69
2022/09/19 03:26:34;;;;;;;6.90;1.10;;;;;;;7.50;94.78;99429.74;106024;1272;22615;-68
2022/09/19 03:29:08;;;;;;;3.10;0.90;;;;;;;7.50;94.79;99428.14;105681;1271;22579;-69
2022/09/19 03:31:39;;;;;;;3.70;0.90;;;;;;;7.50;94.75;99430.61;105642;1271;24310;-70
2022/09/19 03:34:10;;;;;;;8.40;1.60;;;;;;;7.53;95.01;99431.81;105596;1271;25138;-68
2022/09/19 03:36:43;;;;;;;5.00;1.40;;;;;;;7.56;95.05;99436.10;105584;1271;22568;-71
2022/09/19 03:39:14;;;;;;;5.20;1.70;;;;;;;7.57;95.11;99431.99;105646;1271;25276;-69
2022/09/19 03:41:45;;;;;;;3.90;1.20;;;;;;;7.59;95.04;99437.69;105722;1275;22551;-68
2022/09/19 03:44:19;;;;;;;4.70;1.10;;;;;;;7.59;94.99;99438.95;105620;1274;22535;-68
2022/09/19 03:46:51;;;;;;;5.70;1.40;;;;;;;7.60;95.01;99438.16;105576;1271;22792;-68
2022/09/19 03:49:22;;;;;;;5.60;1.10;;;;;;;7.61;95.00;99438.73;105822;1271;22533;-68
2022/09/19 03:51:53;;;;;;;4.10;1.10;;;;;;;7.62;95.14;99441.22;105853;1274;22541;-68
2022/09/19 03:54:24;;;;;;;4.50;1.10;;;;;;;7.64;95.15;99446.92;105808;1274;22555;-68
2022/09/19 03:56:55;;;;;;;3.70;1.00;;;;;;;7.64;95.17;99449.91;105606;1271;23629;-71
2022/09/19 03:59:26;;;;;;;5.00;1.50;;;;;;;7.65;95.09;99446.54;105595;1274;22618;-67
2022/09/19 04:01:58;;;;;;;3.80;1.20;;;;;;;7.67;95.28;99452.06;105640;1271;25308;-70
2022/09/19 04:04:28;;;;;;;6.60;1.40;;;;;;;7.69;95.35;99453.92;105693;1271;22530;-68
2022/09/19 04:07:01;;;;;;;4.80;1.30;;;;;;;7.72;95.37;99455.29;105651;1271;24379;-69
2022/09/19 04:09:32;;;;;;;5.10;1.30;;;;;;;7.75;95.69;99457.98;105710;1271;22702;-70
2022/09/19 04:12:04;;;;;;;5.50;1.20;;;;;;;7.78;95.67;99458.79;105585;1271;24313;-68
2022/09/19 04:14:35;;;;;;;6.80;1.40;;;;;;;7.80;95.75;99457.25;105704;1271;24304;-68
2022/09/19 04:17:09;;;;;;;6.20;1.40;;;;;;;7.82;95.80;99461.13;105641;1271;22671;-68
2022/09/19 04:19:40;;;;;;;5.90;1.60;;;;;;;7.84;95.73;99462.13;105662;1274;22651;-69
2022/09/19 04:22:11;;;;;;;5.80;1.60;;;;;;;7.85;95.63;99462.99;105642;1271;23182;-70
2022/09/19 04:24:43;;;;;;;7.90;1.40;;;;;;;7.84;95.61;99464.96;105599;1271;22688;-70
2022/09/19 04:27:14;;;;;;;3.50;1.20;;;;;;;7.82;95.44;99470.68;105694;1271;22609;-71
2022/09/19 04:29:45;;;;;;;5.60;1.50;;;;;;;7.83;95.68;99472.96;105741;1274;22562;-68
2022/09/19 04:32:16;;;;;;;11.50;1.80;;;;;;;7.83;95.67;99473.11;105638;1274;23821;-68
2022/09/19 04:34:47;;;;;;;5.60;1.30;;;;;;;7.83;95.67;99476.91;105739;1271;25439;-67
2022/09/19 04:37:22;;;;;;;7.30;1.50;;;;;;;7.84;95.68;99477.52;105617;1271;24663;-68
2022/09/19 04:39:53;;;;;;;7.20;1.40;;;;;;;7.84;95.64;99480.91;105687;1271;22535;-67
2022/09/19 04:42:24;;;;;;;6.80;1.20;;;;;;;7.83;95.59;99482.13;105421;1271;24363;-68
2022/09/19 04:44:56;;;;;;;6.80;1.10;;;;;;;7.84;95.65;99485.77;105594;1271;24358;-68
2022/09/19 04:47:32;;;;;;;4.40;1.00;;;;;;;7.84;95.50;99486.94;105514;1271;23219;-68
2022/09/19 04:50:06;;;;;;;5.10;1.10;;;;;;;7.83;95.30;99486.27;105724;1274;22557;-68
2022/09/19 04:52:39;;;;;;;5.00;1.00;;;;;;;7.84;95.31;99490.06;105721;1274;22564;-68
2022/09/19 04:55:12;;;;;;;4.10;0.80;;;;;;;7.82;95.24;99491.89;105612;1274;22554;-69
2022/09/19 04:57:44;;;;;;;3.10;0.80;;;;;;;7.81;94.97;99495.27;105622;1271;22576;-67
2022/09/19 05:00:36;;;;;;;4.70;1.00;;;;;;;7.81;95.33;99494.60;105855;1271;22985;-68
2022/09/19 05:03:12;;;;;;;6.40;0.80;;;;;;;7.81;95.34;99497.13;105890;1271;22871;-67
2022/09/19 05:05:50;;;;;;;4.00;0.70;;;;;;;7.81;95.24;99500.06;106018;1274;22538;-64
2022/09/19 05:08:27;;;;;;;2.50;0.60;;;;;;;7.80;95.26;99502.73;106046;1271;22526;-63
2022/09/19 05:11:01;;;;;;;2.70;0.70;;;;;;;7.80;95.20;99504.70;107072;1271;24050;-63
2022/09/19 05:13:37;;;;;;;3.20;0.70;;;;;;;7.80;95.33;99502.73;106110;1273;22569;-65
2022/09/19 05:16:13;;;;;;;3.70;0.90;;;;;;;7.81;95.36;99507.44;105992;1271;25559;-64
2022/09/19 05:18:44;;;;;;;4.70;0.90;;;;;;;7.82;95.43;99508.32;106081;1271;24247;-65
2022/09/19 05:21:17;;;;;;;5.00;0.50;;;;;;;7.83;95.52;99511.21;105868;1271;24351;-63
2022/09/19 05:23:49;;;;;;;2.50;0.50;;;;;;;7.84;95.14;99516.84;105939;1271;24296;-65
2022/09/19 05:26:21;;;;;;;5.40;0.50;;;;;;;7.84;95.03;99521.95;105840;1271;24338;-66
2022/09/19 05:28:53;;;;;;;4.60;0.60;;;;;;;7.84;95.07;99522.65;105875;1271;22535;-64
2022/09/19 05:31:25;;;;;;;3.40;0.70;;;;;;;7.85;95.31;99524.90;105711;1271;25267;-64
2022/09/19 05:33:56;;;;;;;5.10;0.70;;;;;;;7.87;95.41;99526.89;106412;1271;24243;-64
2022/09/19 05:36:27;;;;;;;3.80;0.80;;;;;;;7.88;95.33;99532.48;105896;1271;22562;-64
2022/09/19 05:39:00;;;;;;;4.70;0.70;;;;;;;7.88;95.48;99535.86;105885;1271;22550;-64
2022/09/19 05:41:31;;;;;;;6.00;0.80;;;;;;;7.90;95.31;99541.81;105867;1271;25254;-64
2022/09/19 05:44:03;;;;;;;5.80;0.70;;;;;;;7.90;95.23;99541.60;105731;1271;22545;-64
2022/09/19 05:46:35;;;;;;;4.10;0.90;;;;;;;7.90;95.16;99546.60;105997;1271;22630;-64
2022/09/19 05:49:06;;;;;;;1.90;0.60;;;;;;;7.89;95.29;99544.27;105959;1271;22719;-64
2022/09/19 05:51:37;;;;;;;4.10;1.30;;;;;;;7.88;95.30;99551.42;105942;1271;22561;-64
2022/09/19 05:54:09;;;;;;;4.70;1.20;;;;;;;7.88;95.31;99556.92;105863;1271;22664;-65
2022/09/19 05:56:41;;;;;;;3.30;0.90;;;;;;;7.87;95.16;99561.52;106027;1271;25323;-65
2022/09/19 05:59:13;;;;;;;5.50;1.30;;;;;;;7.86;95.41;99562.05;105874;1271;22548;-64
2022/09/19 06:01:45;;;;;;;8.40;1.40;;;;;;;7.86;95.71;99569.08;106025;1271;22532;-64
2022/09/19 06:04:16;;;;;;;3.90;1.00;;;;;;;7.88;95.68;99568.99;105812;1271;23005;-65
2022/09/19 06:06:47;;;;;;;5.20;1.00;;;;;;;7.89;95.64;99569.98;106049;1271;22557;-64
2022/09/19 06:09:18;;;;;;;4.30;1.00;;;;;;;7.91;95.75;99572.46;105812;1271;24319;-65
2022/09/19 06:11:50;;;;;;;7.70;1.30;;;;;;;7.93;95.75;99571.18;105618;1271;25367;-65
2022/09/19 06:14:23;;;;;;;5.60;1.30;;;;;;;7.95;95.68;99576.07;105738;1271;24241;-65
2022/09/19 06:16:55;;;;;;;4.40;1.20;;;;;;;7.98;95.87;99572.98;105810;1271;22703;-65
2022/09/19 06:19:26;;;;;;;9.40;1.60;;;;;;;7.99;95.69;99578.88;105689;1271;25627;-64
2022/09/19 06:22:03;;;;;;;6.60;1.30;;;;;;;8.02;95.63;99581.84;105868;1270;22560;-64
2022/09/19 06:24:35;;;;;;;8.90;1.90;;;;;;;8.04;95.72;99584.17;106000;1271;22612;-65
2022/09/19 06:27:06;;;;;;;5.90;1.60;;;;;;;8.07;95.73;99581.25;105700;1271;22536;-64
2022/09/19 06:29:37;;;;;;;5.20;1.70;;;;;;;8.11;95.88;99583.02;105863;1271;22815;-64
2022/09/19 06:32:09;;;;;;;4.90;1.30;;;;;;;8.14;95.96;99585.57;105963;1271;22964;-65
2022/09/19 06:34:40;;;;;;;8.20;2.20;;;;;;;8.19;96.13;99587.92;105692;1271;23956;-65
2022/09/19 06:37:12;;;;;;;9.00;2.30;;;;;;;8.23;96.25;99586.03;105664;1271;23024;-64
2022/09/19 06:39:43;;;;;;;9.50;1.60;;;;;;;8.27;96.12;99586.08;105682;1271;22570;-65
2022/09/19 06:42:14;;;;;;;5.60;1.30;;;;;;;8.30;95.97;99590.02;105717;1271;24430;-65
2022/09/19 06:44:45;;;;;;;7.50;1.40;;;;;;;8.33;96.04;99590.42;106050;1271;25336;-65
2022/09/19 06:47:17;;;;;;;5.60;1.20;;;;;;;8.38;95.85;99588.54;105780;1271;25319;-65
2022/09/19 06:49:48;;;;;;;7.50;1.30;;;;;;;8.40;95.66;99591.77;105704;1271;22557;-65
2022/09/19 06:52:19;;;;;;;4.80;1.20;;;;;;;8.41;95.30;99593.09;105791;1271;22607;-65
2022/09/19 06:54:50;;;;;;;8.80;1.50;;;;;;;8.43;95.36;99598.48;105761;1271;27468;-64
2022/09/19 06:57:22;;;;;;;7.20;1.70;;;;;;;8.45;95.34;99602.58;105643;1271;24215;-65
2022/09/19 06:59:54;;;;;;;5.50;1.20;;;;;;;8.47;95.00;99604.44;105715;1271;22531;-65
2022/09/19 07:02:25;;;;;;;7.70;2.00;;;;;;;8.48;95.07;99605.45;105707;1271;25317;-65
2022/09/19 07:04:56;;;;;;;5.30;1.10;;;;;;;8.50;94.98;99608.67;105713;1271;22629;-64
2022/09/19 07:07:30;;;;;;;8.40;1.20;;;;;;;8.50;94.80;99613.59;105670;1271;22525;-65
2022/09/19 07:10:01;;;;;;;5.90;1.50;;;;;;;8.51;94.63;99619.11;105771;1271;22545;-65
2022/09/19 07:12:33;;;;;;;5.10;1.50;;;;;;;8.53;94.58;99620.21;105941;1271;24427;-65
2022/09/19 07:15:04;;;;;;;4.10;1.20;;;;;;;8.54;94.58;99625.98;105925;1271;24443;-65
2022/09/19 07:17:37;;;;;;;7.50;1.30;;;;;;;8.57;94.42;99628.66;105712;1271;22559;-65
2022/09/19 07:20:09;;;;;;;7.30;1.30;;;;;;;8.58;94.34;99632.34;105906;1271;22541;-65
2022/09/19 07:22:40;;;;;;;6.30;1.10;;;;;;;8.60;94.27;99629.58;105681;1271;25370;-65
2022/09/19 07:25:12;;;;;;;4.60;1.00;;;;;;;8.62;94.06;99633.42;105685;1271;24302;-65
2022/09/19 07:27:43;;;;;;;8.90;1.30;;;;;;;8.66;94.15;99637.22;105731;1271;24445;-65
2022/09/19 07:30:16;;;;;;;5.10;1.10;;;;;;;8.70;94.57;99635.77;105817;1271;24288;-65
2022/09/19 07:32:47;;;;;;;5.20;1.30;;;;;;;8.75;94.34;99638.54;106058;1272;22543;-65
2022/09/19 07:35:18;;;;;;;5.20;1.10;;;;;;;8.78;93.93;99638.49;105950;1271;24329;-66
2022/09/19 07:37:52;;;;;;;7.50;1.00;;;;;;;8.81;93.91;99640.45;105782;1271;22562;-66
2022/09/19 07:40:24;;;;;;;5.60;1.00;;;;;;;8.85;93.83;99642.00;105705;1271;22563;-65
2022/09/19 07:43:02;;;;;;;5.90;1.20;;;;;;;8.89;93.52;99646.11;105939;1271;24500;-65
2022/09/19 07:45:36;;;;;;;5.90;1.10;;;;;;;8.95;93.82;99646.45;105855;1271;22613;-66
2022/09/19 07:48:08;;;;;;;6.00;1.10;;;;;;;9.06;93.85;99648.80;105819;1271;25551;-65
2022/09/19 07:50:39;;;;;;;7.80;1.10;;;;;;;9.16;94.00;99649.11;105958;1271;24470;-66
2022/09/19 07:53:14;;;;;;;4.00;0.80;;;;;;;9.27;93.77;99650.33;105772;1271;24269;-65
2022/09/19 07:55:48;;;;;;;3.40;1.10;;;;;;;9.37;93.02;99652.36;105932;1271;25325;-65
2022/09/19 07:58:20;;;;;;;5.00;0.90;;;;;;;9.44;91.80;99652.91;105768;1271;25374;-65
2022/09/19 08:00:52;;;;;;;5.70;0.90;;;;;;;9.50;92.00;99657.10;105954;1271;22595;-65
2022/09/19 08:03:23;;;;;;;3.60;0.90;;;;;;;9.59;93.07;99655.77;105774;1271;23531;-64
2022/09/19 08:05:55;;;;;;;4.20;0.90;;;;;;;9.69;92.11;99662.02;105697;1271;22534;-66
2022/09/19 08:08:26;;;;;;;4.90;0.80;;;;;;;9.75;91.53;99660.67;105687;1271;23792;-65
2022/09/19 08:11:02;;;;;;;4.70;0.90;;;;;;;9.77;91.07;99664.15;105900;1271;25257;-66
2022/09/19 08:13:33;;;;;;;4.00;0.80;;;;;;;9.79;91.40;99668.94;105951;1271;22687;-66
2022/09/19 08:16:06;;;;;;;6.40;1.00;;;;;;;9.80;90.96;99666.42;105689;1271;25364;-66
2022/09/19 08:18:39;;;;;;;5.40;0.80;;;;;;;9.79;91.14;99671.42;105952;1271;25381;-65
2022/09/19 08:21:10;;;;;;;5.70;1.00;;;;;;;9.79;91.12;99674.30;106010;1271;22554;-66
2022/09/19 08:23:41;;;;;;;4.70;1.20;;;;;;;9.76;90.19;99677.51;106027;1271;22690;-66
2022/09/19 08:26:12;;;;;;;5.90;1.10;;;;;;;9.72;90.06;99682.42;105905;1271;24280;-66
2022/09/19 08:28:44;;;;;;;5.20;0.70;;;;;;;9.70;89.98;99687.01;105681;1271;23210;-66
2022/09/19 08:31:15;;;;;;;4.60;0.60;;;;;;;9.69;90.19;99684.88;105755;1271;22589;-66
2022/09/19 08:33:48;;;;;;;3.90;0.90;;;;;;;9.73;90.43;99686.24;106047;1271;22642;-66
2022/09/19 08:36:19;;;;;;;5.40;1.00;;;;;;;9.78;90.40;99687.13;105879;1271;23941;-66
2022/09/19 08:38:51;;;;;;;8.20;1.10;;;;;;;9.84;90.71;99691.05;106079;1271;25357;-66
2022/09/19 08:41:44;;;;;;;4.80;1.10;;;;;;;9.91;90.84;99695.20;106095;1271;26407;-67
2022/09/19 08:44:25;;;;;;;9.10;1.40;;;;;;;9.95;89.93;99694.58;106092;1271;22691;-66
2022/09/19 08:47:07;;;;;;;5.10;1.60;;;;;;;9.93;89.43;99698.25;105802;1271;24549;-67
2022/09/19 08:49:43;;;;;;;4.10;1.00;;;;;;;9.91;89.45;99703.61;105703;1271;24437;-66
2022/09/19 08:52:26;;;;;;;8.60;2.00;;;;;;;9.91;89.19;99707.46;105842;1271;26618;-66
2022/09/19 08:54:58;;;;;;;6.70;1.20;;;;;;;9.92;89.29;99701.99;105875;1271;22580;-66
2022/09/19 08:57:34;;;;;;;6.40;1.20;;;;;;;9.95;89.10;99710.51;106010;1271;24433;-66
2022/09/19 09:00:16;;;;;;;3.70;1.00;;;;;;;9.98;89.14;99708.77;105772;1271;22692;-66
2022/09/19 09:02:54;;;;;;;6.70;1.20;;;;;;;10.04;89.60;99706.77;105825;1271;22572;-67
2022/09/19 09:05:39;;;;;;;3.20;0.80;;;;;;;10.08;89.13;99711.29;105804;1271;25324;-67
2022/09/19 09:08:21;;;;;;;4.90;1.10;;;;;;;10.14;88.63;99711.04;106042;1271;25438;-66
2022/09/19 09:11:00;;;;;;;4.00;0.80;;;;;;;10.26;88.90;99707.33;105843;1271;22639;-65
2022/09/19 09:13:47;;;;;;;4.20;0.80;;;;;;;10.40;88.85;99716.45;105895;1271;25484;-66
2022/09/19 09:16:29;;;;;;;3.80;0.80;;;;;;;10.59;88.76;99717.38;106269;1271;23554;-67
2022/09/19 09:19:17;;;;;;;3.20;0.90;;;;;;;10.80;88.89;99708.50;106158;1271;22553;-67
2022/09/19 09:22:00;;;;;;;8.20;0.70;;;;;;;11.01;88.37;99710.41;105972;1271;22533;-66
2022/09/19 09:24:35;;;;;;;3.90;0.70;;;;;;;11.09;87.13;99716.83;105897;1271;26261;-66
2022/09/19 09:27:11;;;;;;;7.00;0.70;;;;;;;11.09;86.58;99714.10;105840;1271;22703;-66
2022/09/19 09:29:45;;;;;;;5.90;1.00;;;;;;;11.08;86.30;99716.11;105721;1271;25319;-66
2022/09/19 09:32:22;;;;;;;2.90;0.80;;;;;;;11.12;86.23;99717.77;105704;1271;22550;-66
2022/09/19 09:34:58;;;;;;;6.20;0.70;;;;;;;11.19;85.66;99719.91;105804;1271;24274;-66
2022/09/19 09:37:36;;;;;;;5.00;0.80;;;;;;;11.26;84.45;99725.21;106039;1271;24320;-66
2022/09/19 09:41:44;;;;;;;4.80;0.70;;;;;;;11.26;83.84;99729.84;105774;1271;25544;-66
2022/09/19 09:43:09;;;;;;;3.60;0.60;;;;;;;11.27;84.11;99729.23;105740;1271;24234;-65
2022/09/19 09:45:48;;;;;;;5.80;0.90;;;;;;;11.29;83.82;99735.04;105878;1271;25309;-65
2022/09/19 09:48:25;;;;;;;3.30;0.70;;;;;;;11.28;83.31;99732.73;105956;1271;22715;-66
2022/09/19 09:51:14;;;;;;;8.30;0.80;;;;;;;11.28;84.11;99734.77;105807;1271;22667;-65
2022/09/19 09:54:04;;;;;;;6.50;0.90;;;;;;;11.28;83.53;99736.09;105806;1271;22547;-66
2022/09/19 09:56:43;;;;;;;4.70;0.70;;;;;;;11.29;83.60;99742.14;105938;1271;22646;-66
2022/09/19 10:05:25;;;;;;;8.40;0.70;;;;;;;11.26;82.84;99749.23;105668;1271;22547;-66
2022/09/19 10:08:05;;;;;;;3.20;0.60;;;;;;;11.25;83.10;99751.00;105861;1271;22564;-69
2022/09/19 10:10:41;;;;;;;4.30;0.60;;;;;;;11.22;82.03;99755.89;105900;1271;22780;-67
2022/09/19 10:13:25;;;;;;;2.10;0.40;;;;;;;11.13;82.30;99751.56;105876;1271;25417;-66
2022/09/19 10:16:02;;;;;;;3.50;0.50;;;;;;;11.05;82.59;99752.77;105666;1271;22561;-66
2022/09/19 10:18:42;;;;;;;3.40;0.40;;;;;;;11.00;82.10;99753.84;105656;1271;22537;-66
2022/09/19 10:21:14;;;;;;;4.00;0.50;;;;;;;10.98;82.62;99753.55;105693;1271;24316;-67
2022/09/19 10:23:47;;;;;;;5.80;0.60;;;;;;;10.97;82.75;99755.77;105766;1271;22553;-67
2022/09/19 10:26:26;;;;;;;7.10;0.50;;;;;;;10.98;83.28;99756.23;105897;1271;26580;-67
2022/09/19 10:29:00;;;;;;;3.80;0.60;;;;;;;11.00;83.51;99756.16;105855;1271;25519;-66
2022/09/19 10:31:35;;;;;;;3.00;0.40;;;;;;;11.03;83.55;99759.13;106011;1271;26789;-66
2022/09/19 10:34:27;;;;;;;5.80;0.70;;;;;;;11.05;83.12;99763.64;105863;1271;22579;-67
2022/09/19 10:37:05;;;;;;;4.00;0.60;;;;;;;11.06;82.77;99763.69;105749;1271;22653;-66
2022/09/19 10:39:44;;;;;;;1.60;0.40;;;;;;;11.10;83.08;99767.88;105685;1271;25268;-69
2022/09/19 10:42:36;;;;;;;4.30;0.60;;;;;;;11.14;82.90;99770.11;105724;1271;24309;-67
2022/09/19 10:45:19;;;;;;;2.70;0.60;;;;;;;11.16;82.41;99776.32;105916;1271;22900;-67
2022/09/19 10:47:52;;;;;;;5.10;0.90;;;;;;;11.16;83.27;99775.45;105765;1271;22566;-66
2022/09/19 10:50:23;;;;;;;6.10;1.10;;;;;;;11.13;83.41;99780.30;105759;1271;22557;-66
2022/09/19 10:53:04;;;;;;;4.90;0.90;;;;;;;11.08;83.76;99781.23;105762;1271;22676;-67
2022/09/19 10:55:44;;;;;;;5.80;1.30;;;;;;;11.02;84.11;99781.83;105862;1271;22531;-66
2022/09/19 10:58:22;;;;;;;6.00;1.40;;;;;;;10.97;84.69;99780.81;105821;1271;24264;-66
2022/09/19 11:00:57;;;;;;;3.40;1.00;;;;;;;10.92;84.94;99780.05;105736;1271;22707;-66
2022/09/19 11:03:31;;;;;;;6.20;1.20;;;;;;;10.88;85.14;99783.41;105766;1271;22528;-67
2022/09/19 11:06:12;;;;;;;7.10;1.80;;;;;;;10.85;85.49;99787.24;105725;1271;22561;-67
2022/09/19 11:08:46;;;;;;;6.30;1.40;;;;;;;10.85;85.88;99781.45;105746;1271;24337;-66
2022/09/19 11:11:32;;;;;;;8.00;1.50;;;;;;;10.87;86.11;99786.66;105697;1271;25198;-66
2022/09/19 11:14:26;;;;;;;7.80;2.20;;;;;;;10.87;85.93;99782.79;105737;1271;22532;-67
2022/09/19 11:17:18;;;;;;;8.70;1.60;;;;;;;10.91;86.77;99781.81;105697;1271;22557;-66
2022/09/19 11:20:05;;;;;;;8.20;1.50;;;;;;;10.98;86.92;99782.65;105840;1271;25344;-67
2022/09/19 11:22:51;;;;;;;8.20;1.50;;;;;;;11.03;86.92;99783.71;105803;1271;22615;-67
2022/09/19 11:25:28;;;;;;;6.50;1.30;;;;;;;11.10;87.08;99783.02;105857;1271;22551;-66
2022/09/19 11:28:13;;;;;;;8.70;1.40;;;;;;;11.14;86.34;99780.52;105744;1271;22650;-66
2022/09/19 11:31:01;;;;;;;6.00;1.90;;;;;;;11.16;86.72;99780.54;105657;1271;22551;-67
2022/09/19 11:33:56;;;;;;;5.00;1.40;;;;;;;11.21;87.22;99784.55;105950;1271;22699;-67
2022/09/19 11:36:45;;;;;;;4.90;1.40;;;;;;;11.24;86.65;99785.89;105845;1271;22540;-67
2022/09/19 11:39:23;;;;;;;5.20;1.20;;;;;;;11.22;86.70;99788.92;106050;1271;22571;-65
2022/09/19 11:42:08;;;;;;;5.70;1.40;;;;;;;11.21;86.72;99785.46;105861;1271;26511;-65
2022/09/19 11:44:58;;;;;;;4.50;1.20;;;;;;;11.20;87.30;99784.94;106026;1271;22670;-65
2022/09/19 11:47:59;;;;;;;3.60;1.00;;;;;;;11.19;87.04;99787.11;106171;1271;22587;-66
2022/09/19 11:50:43;;;;;;;4.10;0.80;;;;;;;11.18;86.49;99789.39;105661;1271;25267;-66
2022/09/19 11:53:29;;;;;;;4.70;1.00;;;;;;;11.15;86.51;99786.36;105788;1271;24335;-67
2022/09/19 11:56:13;;;;;;;4.90;1.20;;;;;;;11.16;87.49;99784.85;105747;1271;24223;-66
2022/09/19 11:58:52;;;;;;;3.90;1.30;;;;;;;11.20;87.77;99784.29;105785;1271;25389;-66
2022/09/19 12:01:38;;;;;;;4.90;1.00;;;;;;;11.24;88.01;99785.23;105647;1271;25419;-66
2022/09/19 12:04:27;;;;;;;5.40;1.00;;;;;;;11.27;88.03;99789.17;105696;1271;25314;-66
2022/09/19 12:07:25;;;;;;;4.30;0.60;;;;;;;11.25;87.57;99788.39;105688;1271;25458;-66
2022/09/19 12:10:03;;;;;;;3.80;0.80;;;;;;;11.22;87.39;99784.65;105796;1271;22556;-66
2022/09/19 12:12:39;;;;;;;2.30;0.70;;;;;;;11.22;87.53;99785.30;105800;1271;25262;-66
2022/09/19 12:15:22;;;;;;;3.10;0.60;;;;;;;11.20;87.58;99785.00;105660;1270;23066;-65
2022/09/19 12:18:02;;;;;;;8.30;0.90;;;;;;;11.20;87.95;99788.44;105729;1273;25369;-65
2022/09/19 12:20:42;;;;;;;3.90;0.60;;;;;;;11.19;88.15;99786.55;105987;1271;22551;-64
2022/09/19 12:26:21;;;;;;;5.10;0.60;;;;;;;11.15;88.32;99777.79;105999;1271;22580;-64
2022/09/19 12:29:08;;;;;;;2.90;0.60;;;;;;;11.17;88.56;99777.60;105943;1271;24332;-65